Arena, Wisconsin
Current Conditions -  °F | °C
As of 7:56 PM on Saturday 22 Nov 2014 (Local Time) from KLNR Reporting Station
Haze Haze  
Wind Chill: 46°   Ceiling: 700
Heat Index: 48°   Visibility: 5mi
Dew Point: 43°   Wind: 5mph
Humidity: 83%   Direction: 90°E
Pressure: 29.75"   Gusts: NA
Location:  43.17°N, 89.91°W
Report Text: KLNR 230156Z AUTO 09004KT 5SM HZ OVC007 09/06 A2975 RMK AO2 SLP073 T00890061
Loading
Personal Weather Stations






























Interactive Weather Map New forecast layout! Learn more

10-Day Weather Forecast

Advertisements
Track Severe Weather on mobile